EZY37NU EGKK-LXGB
Flight info
| Callsign | EZY37NU |
|---|---|
| Flight time | N/A |
| Altitude | 35000 |
| Route | IMVUR1Z IMVUR N63 SAM M195 MARUK N621 LELNA DCT NOVAN DCT DELOG DCT CRISA DCT VULPE DCT MAR N864 PIMOS DCT |
| Aircraft | A320/M-SDE3FGHIRWY/LB1 |
Departure
| Time | N/A |
|---|---|
| Airport | London Gatwick Airport (EGKK) |
Arrival
| Time | 2026-05-04 12:53 |
|---|---|
| Airport | Gibraltar Airport (LXGB) |
| Time | Latitude | Longitude | Altitude | Speed | Heading |
|---|---|---|---|---|---|
| 2026-05-04 12:33 | 37.07049 | -4.93678 | 32107 ft | 358 kts | 199° |
| 2026-05-04 12:33 | 37.04557 | -4.93940 | 31392 ft | 364 kts | 188° |
| 2026-05-04 12:33 | 37.02038 | -4.93817 | 30706 ft | 361 kts | 188° |
| 2026-05-04 12:34 | 36.99546 | -4.93682 | 30015 ft | 356 kts | 188° |
| 2026-05-04 12:34 | 36.97089 | -4.93547 | 29221 ft | 351 kts | 188° |
| 2026-05-04 12:34 | 36.94662 | -4.93413 | 28453 ft | 347 kts | 188° |
| 2026-05-04 12:34 | 36.92266 | -4.93286 | 27692 ft | 343 kts | 188° |
| 2026-05-04 12:35 | 36.89926 | -4.93163 | 26985 ft | 339 kts | 188° |
| 2026-05-04 12:35 | 36.87591 | -4.93043 | 26279 ft | 334 kts | 187° |
| 2026-05-04 12:35 | 36.85280 | -4.92926 | 25579 ft | 330 kts | 187° |
| 2026-05-04 12:35 | 36.82997 | -4.92810 | 24909 ft | 326 kts | 187° |
| 2026-05-04 12:36 | 36.80735 | -4.92695 | 24250 ft | 324 kts | 186° |
| 2026-05-04 12:36 | 36.78494 | -4.92581 | 23600 ft | 321 kts | 186° |
| 2026-05-04 12:36 | 36.76276 | -4.92469 | 22953 ft | 316 kts | 186° |
| 2026-05-04 12:36 | 36.74111 | -4.92354 | 22428 ft | 309 kts | 186° |
| 2026-05-04 12:37 | 36.71982 | -4.92243 | 21822 ft | 304 kts | 186° |
| 2026-05-04 12:37 | 36.69879 | -4.92136 | 21227 ft | 300 kts | 186° |
| 2026-05-04 12:37 | 36.67805 | -4.92031 | 20640 ft | 297 kts | 185° |
| 2026-05-04 12:37 | 36.65745 | -4.91927 | 20067 ft | 295 kts | 185° |
| 2026-05-04 12:38 | 36.63692 | -4.91827 | 19513 ft | 298 kts | 185° |
| 2026-05-04 12:38 | 36.61595 | -4.91728 | 18962 ft | 305 kts | 185° |
| 2026-05-04 12:38 | 36.59452 | -4.91626 | 18422 ft | 311 kts | 184° |
| 2026-05-04 12:38 | 36.57269 | -4.91520 | 17822 ft | 317 kts | 184° |
| 2026-05-04 12:39 | 36.55046 | -4.91408 | 17210 ft | 322 kts | 183° |
| 2026-05-04 12:39 | 36.52786 | -4.91291 | 16617 ft | 328 kts | 183° |
| 2026-05-04 12:39 | 36.50517 | -4.91172 | 16040 ft | 333 kts | 183° |
| 2026-05-04 12:39 | 36.48191 | -4.91052 | 15470 ft | 336 kts | 183° |
| 2026-05-04 12:40 | 36.45839 | -4.90931 | 14906 ft | 339 kts | 182° |
| 2026-05-04 12:40 | 36.43499 | -4.90807 | 14341 ft | 332 kts | 182° |
| 2026-05-04 12:40 | 36.41227 | -4.90684 | 13776 ft | 323 kts | 182° |
| 2026-05-04 12:40 | 36.39002 | -4.90566 | 13094 ft | 317 kts | 182° |
| 2026-05-04 12:41 | 36.36814 | -4.90452 | 12422 ft | 312 kts | 182° |
| 2026-05-04 12:41 | 36.34666 | -4.90341 | 11767 ft | 307 kts | 182° |
| 2026-05-04 12:41 | 36.32544 | -4.90232 | 11126 ft | 303 kts | 182° |
| 2026-05-04 12:41 | 36.30457 | -4.90123 | 10511 ft | 298 kts | 182° |
| 2026-05-04 12:42 | 36.28449 | -4.90011 | 10339 ft | 278 kts | 183° |
| 2026-05-04 12:42 | 36.26565 | -4.89906 | 10045 ft | 269 kts | 183° |
| 2026-05-04 12:42 | 36.24692 | -4.89815 | 9637 ft | 270 kts | 184° |
| 2026-05-04 12:42 | 36.22820 | -4.89728 | 9214 ft | 266 kts | 183° |
| 2026-05-04 12:43 | 36.21029 | -4.89638 | 9033 ft | 248 kts | 184° |
| 2026-05-04 12:43 | 36.19366 | -4.89550 | 8903 ft | 233 kts | 184° |
| 2026-05-04 12:43 | 36.17775 | -4.89467 | 8772 ft | 225 kts | 184° |
| 2026-05-04 12:43 | 36.16230 | -4.89389 | 8512 ft | 222 kts | 184° |
| 2026-05-04 12:44 | 36.14744 | -4.89340 | 8201 ft | 209 kts | 191° |
| 2026-05-04 12:44 | 36.13441 | -4.89858 | 7871 ft | 190 kts | 219° |
| 2026-05-04 12:44 | 36.12557 | -4.90972 | 7580 ft | 176 kts | 243° |
| 2026-05-04 12:44 | 36.12170 | -4.92361 | 7290 ft | 170 kts | 264° |
| 2026-05-04 12:45 | 36.12242 | -4.93810 | 7002 ft | 170 kts | 277° |
| 2026-05-04 12:45 | 36.12407 | -4.95254 | 6715 ft | 169 kts | 277° |
| 2026-05-04 12:45 | 36.12568 | -4.96693 | 6420 ft | 169 kts | 277° |
| 2026-05-04 12:45 | 36.12729 | -4.98132 | 6119 ft | 169 kts | 277° |
| 2026-05-04 12:46 | 36.12889 | -4.99573 | 5814 ft | 169 kts | 277° |
| 2026-05-04 12:46 | 36.13048 | -5.01007 | 5508 ft | 168 kts | 277° |
| 2026-05-04 12:46 | 36.13205 | -5.02434 | 5207 ft | 167 kts | 277° |
| 2026-05-04 12:46 | 36.13363 | -5.03862 | 4915 ft | 167 kts | 278° |
| 2026-05-04 12:47 | 36.13520 | -5.05284 | 4600 ft | 166 kts | 278° |
| 2026-05-04 12:47 | 36.13674 | -5.06681 | 4294 ft | 166 kts | 278° |
| 2026-05-04 12:47 | 36.13829 | -5.08092 | 3996 ft | 165 kts | 278° |
| 2026-05-04 12:47 | 36.13983 | -5.09497 | 3698 ft | 165 kts | 278° |
| 2026-05-04 12:48 | 36.14136 | -5.10906 | 3400 ft | 165 kts | 277° |
| 2026-05-04 12:48 | 36.14237 | -5.11835 | 3202 ft | 165 kts | 277° |
| 2026-05-04 12:48 | 36.14390 | -5.13238 | 2890 ft | 164 kts | 277° |
| 2026-05-04 12:48 | 36.14596 | -5.15113 | 2494 ft | 165 kts | 278° |
| 2026-05-04 12:49 | 36.14699 | -5.16045 | 2289 ft | 165 kts | 278° |
| 2026-05-04 12:49 | 36.14851 | -5.17424 | 1978 ft | 157 kts | 277° |
| 2026-05-04 12:49 | 36.14993 | -5.18723 | 1674 ft | 148 kts | 277° |
| 2026-05-04 12:49 | 36.15124 | -5.19922 | 1521 ft | 133 kts | 275° |
| 2026-05-04 12:50 | 36.15244 | -5.21019 | 1522 ft | 128 kts | 276° |
| 2026-05-04 12:50 | 36.15362 | -5.22099 | 1463 ft | 124 kts | 275° |
| 2026-05-04 12:50 | 36.15477 | -5.23160 | 1176 ft | 125 kts | 275° |
| 2026-05-04 12:50 | 36.15492 | -5.24231 | 856 ft | 124 kts | 264° |
| 2026-05-04 12:51 | 36.15453 | -5.25290 | 724 ft | 124 kts | 265° |
| 2026-05-04 12:51 | 36.15416 | -5.26364 | 722 ft | 125 kts | 265° |
| 2026-05-04 12:51 | 36.15379 | -5.27420 | 713 ft | 125 kts | 266° |
| 2026-05-04 12:51 | 36.15345 | -5.28482 | 692 ft | 123 kts | 265° |
| 2026-05-04 12:52 | 36.15297 | -5.29560 | 470 ft | 126 kts | 263° |
| 2026-05-04 12:52 | 36.15265 | -5.30638 | 335 ft | 125 kts | 268° |
| 2026-05-04 12:52 | 36.15233 | -5.31726 | 328 ft | 126 kts | 266° |
| 2026-05-04 12:52 | 36.15195 | -5.32792 | 220 ft | 122 kts | 266° |
| 2026-05-04 12:53 | 36.15156 | -5.33851 | 74 ft | 123 kts | 266° |
| 2026-05-04 12:53 | 36.15127 | -5.34870 | 21 ft | 104 kts | 266° |
| 2026-05-04 12:53 | 36.15103 | -5.35540 | 20 ft | 53 kts | 267° |
| 2026-05-04 12:53 | 36.15091 | -5.35826 | 19 ft | 21 kts | 252° |
| 2026-05-04 12:54 | 36.15087 | -5.35938 | 19 ft | 6 kts | 7° |
| 2026-05-04 12:54 | 36.15091 | -5.35890 | 20 ft | 6 kts | 90° |
| 2026-05-04 12:54 | 36.15093 | -5.35814 | 19 ft | 16 kts | 88° |
| 2026-05-04 12:54 | 36.15099 | -5.35604 | 23 ft | 32 kts | 83° |
| 2026-05-04 12:55 | 36.15109 | -5.35334 | 22 ft | 31 kts | 88° |
| 2026-05-04 12:55 | 36.15118 | -5.35076 | 22 ft | 30 kts | 88° |
| 2026-05-04 12:55 | 36.15126 | -5.34844 | 21 ft | 20 kts | 88° |
| 2026-05-04 12:55 | 36.15152 | -5.34689 | 21 ft | 16 kts | 42° |
| 2026-05-04 12:56 | 36.15219 | -5.34681 | 19 ft | 7 kts | 340° |
| 2026-05-04 12:56 | 36.15275 | -5.34712 | 17 ft | 9 kts | 360° |
| 2026-05-04 12:56 | 36.15304 | -5.34714 | 17 ft | 0 kts | 356° |
| 2026-05-04 12:56 | 36.15306 | -5.34714 | 17 ft | 0 kts | 356° |